Time;durP1;ratioP1;P1;durP2;ratioP2;P2;SDS_P1;SDS_P2;PMS_P1;PMS_P2;Temp;Humidity;BMP_temperature;BMP_pressure;BME280_temperature;BME280_humidity;BME280_pressure;Samples;Min_cycle;Max_cycle;Signal;HPM_P1;HPM_P2
2023/05/02 00:01:06;;;;;;;4.30;2.05;;;10.00;99.90;;;;;;5053192;28;20176;-74
2023/05/02 00:03:32;;;;;;;8.55;2.35;;;10.10;99.90;;;;;;5035879;28;20037;-74
2023/05/02 00:05:59;;;;;;;6.85;2.03;;;10.20;99.90;;;;;;5054365;28;20135;-74
2023/05/02 00:08:27;;;;;;;11.48;2.80;;;10.20;99.90;;;;;;5036702;28;20059;-76
2023/05/02 00:10:53;;;;;;;9.80;2.45;;;10.10;99.90;;;;;;5035686;28;21085;-76
2023/05/02 00:13:20;;;;;;;5.30;2.45;;;10.10;99.90;;;;;;5031073;28;20051;-75
2023/05/02 00:15:54;;;;;;;13.48;2.47;;;10.20;99.90;;;;;;5015640;28;20055;-74
2023/05/02 00:18:23;;;;;;;11.90;2.83;;;10.10;99.90;;;;;;5028228;28;20090;-75
2023/05/02 00:20:51;;;;;;;9.45;2.75;;;9.60;99.90;;;;;;5029036;28;20052;-74
2023/05/02 00:23:16;;;;;;;12.88;3.10;;;10.10;99.90;;;;;;5038019;28;20048;-75
2023/05/02 00:25:47;;;;;;;11.68;3.22;;;10.10;99.90;;;;;;5013816;28;20150;-76
2023/05/02 00:28:13;;;;;;;14.77;3.60;;;10.10;99.90;;;;;;5010492;28;20056;-74
2023/05/02 00:30:47;;;;;;;14.80;3.08;;;10.10;99.90;;;;;;5008570;28;20075;-76
2023/05/02 00:33:13;;;;;;;7.28;2.95;;;10.10;99.90;;;;;;5027006;28;20128;-75
2023/05/02 00:35:39;;;;;;;8.88;2.90;;;10.10;99.90;;;;;;5025925;28;20127;-76
2023/05/02 00:38:06;;;;;;;19.70;4.03;;;10.10;99.90;;;;;;4996311;28;20051;-75
2023/05/02 00:40:43;;;;;;;9.90;3.45;;;10.00;99.90;;;;;;4996784;28;20462;-74
2023/05/02 00:43:09;;;;;;;13.05;3.15;;;9.80;99.90;;;;;;5029022;28;20994;-75
2023/05/02 00:45:35;;;;;;;9.48;2.60;;;9.90;99.90;;;;;;5010259;28;20051;-75
2023/05/02 00:48:01;;;;;;;8.23;2.30;;;9.90;99.90;;;;;;4994063;28;20052;-75
2023/05/02 00:50:29;;;;;;;6.57;2.67;;;9.90;99.90;;;;;;5013935;28;20170;-74
2023/05/02 00:52:56;;;;;;;9.30;3.15;;;9.90;99.90;;;;;;5025551;28;20044;-73
2023/05/02 00:55:22;;;;;;;9.82;2.63;;;9.80;99.90;;;;;;5016043;28;20048;-74
2023/05/02 00:57:48;;;;;;;17.33;3.35;;;9.80;99.90;;;;;;5010559;28;20051;-75
2023/05/02 01:00:14;;;;;;;15.05;3.22;;;9.80;99.90;;;;;;5019653;28;20052;-74
2023/05/02 01:02:52;;;;;;;12.85;3.55;;;9.80;99.90;;;;;;5006780;28;20114;-74
2023/05/02 01:05:32;;;;;;;12.48;3.15;;;9.80;99.90;;;;;;5034238;28;20059;-77
2023/05/02 01:08:10;;;;;;;11.52;3.55;;;9.70;99.90;;;;;;5014962;28;20051;-75
2023/05/02 01:10:47;;;;;;;14.93;2.75;;;9.70;99.90;;;;;;5025850;28;20048;-74
2023/05/02 01:13:28;;;;;;;13.40;3.10;;;9.60;99.90;;;;;;5036635;28;20044;-73
2023/05/02 01:15:57;;;;;;;8.00;2.90;;;9.60;99.90;;;;;;5013008;28;20445;-74
2023/05/02 01:18:27;;;;;;;10.60;2.90;;;9.50;99.90;;;;;;5021965;28;20129;-75
2023/05/02 01:20:59;;;;;;;15.23;3.35;;;9.50;99.90;;;;;;5026643;28;20074;-74
2023/05/02 01:23:30;;;;;;;14.93;3.25;;;9.50;99.90;;;;;;5014305;28;20056;-73
2023/05/02 01:26:02;;;;;;;10.82;2.85;;;9.50;99.90;;;;;;5012438;28;20048;-75
2023/05/02 01:28:59;;;;;;;10.65;3.00;;;9.40;99.90;;;;;;5027614;28;21298;-75
2023/05/02 01:31:29;;;;;;;12.88;3.03;;;9.40;99.90;;;;;;5024130;28;20043;-72
2023/05/02 01:33:57;;;;;;;15.55;2.75;;;9.40;99.90;;;;;;5014578;28;20826;-75
2023/05/02 01:36:28;;;;;;;15.32;3.75;;;9.30;99.90;;;;;;5004275;28;20555;-74
2023/05/02 01:38:55;;;;;;;15.43;3.40;;;9.30;99.90;;;;;;5014094;28;20901;-75
2023/05/02 01:41:24;;;;;;;13.52;3.85;;;9.20;99.90;;;;;;5024343;28;20060;-74
2023/05/02 01:43:51;;;;;;;17.23;3.85;;;9.20;99.90;;;;;;5033200;28;20060;-74
2023/05/02 01:46:19;;;;;;;12.48;3.78;;;9.20;99.90;;;;;;5020649;28;20151;-74
2023/05/02 01:48:48;;;;;;;12.43;3.75;;;9.20;99.90;;;;;;5025095;28;20059;-73
2023/05/02 01:51:21;;;;;;;12.20;2.90;;;9.20;99.90;;;;;;5028751;28;20060;-76
2023/05/02 01:53:49;;;;;;;14.65;3.67;;;9.10;99.90;;;;;;5002718;28;20475;-73
2023/05/02 01:56:18;;;;;;;15.68;4.05;;;9.10;99.90;;;;;;5000398;28;20971;-75
2023/05/02 01:58:46;;;;;;;14.30;4.00;;;9.10;99.90;;;;;;5027696;28;20747;-75
2023/05/02 02:01:13;;;;;;;27.63;4.30;;;9.10;99.90;;;;;;5015022;28;20094;-75
2023/05/02 02:03:40;;;;;;;15.23;3.90;;;9.00;99.90;;;;;;5030633;28;20053;-75
2023/05/02 02:06:15;;;;;;;16.85;4.35;;;9.00;99.90;;;;;;5034759;28;20048;-73
2023/05/02 02:08:41;;;;;;;14.98;4.00;;;9.00;99.90;;;;;;5017800;28;20048;-74
2023/05/02 02:11:10;;;;;;;16.50;4.00;;;9.00;99.90;;;;;;5031339;28;20048;-74
2023/05/02 02:13:54;;;;;;;15.32;3.83;;;7.70;99.90;;;;;;5036904;28;20370;-74
2023/05/02 02:16:27;;;;;;;11.18;3.80;;;8.90;99.90;;;;;;5019919;28;20078;-73
2023/05/02 02:18:58;;;;;;;13.55;3.20;;;8.90;99.90;;;;;;5020104;28;20374;-74
2023/05/02 02:21:27;;;;;;;13.13;2.97;;;8.90;99.90;;;;;;5022526;28;20581;-75
2023/05/02 02:23:59;;;;;;;14.20;3.20;;;8.90;99.90;;;;;;5032170;28;20914;-75
2023/05/02 02:26:25;;;;;;;11.50;3.08;;;8.90;99.90;;;;;;5028780;28;20057;-77
2023/05/02 02:28:51;;;;;;;12.32;3.35;;;9.80;99.90;;;;;;5023448;28;20218;-75
2023/05/02 02:31:17;;;;;;;15.18;3.45;;;8.80;99.90;;;;;;5022961;28;20056;-75
2023/05/02 02:33:43;;;;;;;16.02;3.00;;;8.80;99.90;;;;;;5023333;28;20089;-75
2023/05/02 02:36:25;;;;;;;10.63;2.75;;;8.80;99.90;;;;;;5019537;28;20128;-76
2023/05/02 02:39:06;;;;;;;12.02;2.78;;;8.80;99.90;;;;;;5029496;28;20128;-75
2023/05/02 02:41:39;;;;;;;10.45;2.30;;;8.80;99.90;;;;;;5042633;28;20064;-75
2023/05/02 02:44:31;;;;;;;9.50;2.42;;;9.10;99.90;;;;;;5022776;28;20101;-73
2023/05/02 02:47:05;;;;;;;9.43;3.03;;;8.70;99.90;;;;;;5035694;28;20146;-75
2023/05/02 02:49:38;;;;;;;8.00;2.20;;;8.70;99.90;;;;;;5017767;28;20052;-73
2023/05/02 02:52:16;;;;;;;8.50;2.03;;;8.60;99.90;;;;;;5015536;28;20398;-75
2023/05/02 02:54:58;;;;;;;9.02;2.20;;;8.60;99.90;;;;;;5036030;28;21104;-71
2023/05/02 02:57:42;;;;;;;6.63;2.10;;;8.60;99.90;;;;;;5022138;28;20044;-73
2023/05/02 03:00:15;;;;;;;9.13;2.40;;;8.60;99.90;;;;;;5021034;28;20112;-75
2023/05/02 03:02:45;;;;;;;8.77;2.60;;;8.60;99.90;;;;;;5038376;28;20037;-76
2023/05/02 03:05:12;;;;;;;9.50;1.95;;;8.50;99.90;;;;;;5015190;28;20055;-75
2023/05/02 03:07:37;;;;;;;8.18;2.50;;;8.50;99.90;;;;;;5012906;28;20572;-73
2023/05/02 03:10:04;;;;;;;8.48;2.10;;;8.50;99.90;;;;;;5016469;28;20087;-76
2023/05/02 03:12:32;;;;;;;7.45;2.38;;;8.50;99.90;;;;;;5018601;28;20845;-75
2023/05/02 03:15:04;;;;;;;14.68;2.63;;;8.50;99.90;;;;;;5022480;28;20084;-73
2023/05/02 03:17:33;;;;;;;7.30;2.00;;;8.50;99.90;;;;;;5034591;28;20358;-74
2023/05/02 03:19:59;;;;;;;7.43;2.13;;;8.50;99.90;;;;;;5029941;28;20044;-73
2023/05/02 03:22:25;;;;;;;5.68;2.20;;;8.50;99.90;;;;;;5014930;28;20071;-75
2023/05/02 03:24:56;;;;;;;8.30;1.92;;;8.40;99.90;;;;;;5004045;28;21694;-75
2023/05/02 03:27:22;;;;;;;8.38;2.30;;;8.50;99.90;;;;;;5028290;28;20620;-74
2023/05/02 03:29:48;;;;;;;5.78;1.83;;;8.50;99.90;;;;;;5026430;28;20064;-77
2023/05/02 03:32:15;;;;;;;10.50;2.53;;;8.50;99.90;;;;;;5024086;28;20948;-74
2023/05/02 03:34:41;;;;;;;10.55;2.67;;;8.50;99.90;;;;;;5000438;28;21254;-76
2023/05/02 03:37:08;;;;;;;12.57;2.53;;;8.50;99.90;;;;;;5021653;28;20052;-76
2023/05/02 03:39:34;;;;;;;10.50;2.63;;;8.50;99.90;;;;;;5030209;28;20139;-75
2023/05/02 03:42:00;;;;;;;10.02;2.60;;;8.50;99.90;;;;;;5028281;28;20070;-74
2023/05/02 03:44:26;;;;;;;9.23;2.70;;;8.50;99.90;;;;;;5016805;28;20052;-76
2023/05/02 03:46:52;;;;;;;11.05;2.20;;;8.50;99.90;;;;;;5029641;28;20548;-73
2023/05/02 03:49:18;;;;;;;8.80;2.50;;;8.40;99.90;;;;;;5028537;28;20137;-73
2023/05/02 03:51:44;;;;;;;10.82;2.40;;;8.40;99.90;;;;;;5016957;28;20057;-73
2023/05/02 03:54:11;;;;;;;11.20;2.33;;;8.40;99.90;;;;;;5034084;28;20074;-75
2023/05/02 03:56:38;;;;;;;8.93;2.00;;;8.40;99.90;;;;;;5020184;28;20076;-74
2023/05/02 03:59:04;;;;;;;5.43;1.75;;;8.30;99.90;;;;;;5007762;28;20048;-74
2023/05/02 04:01:30;;;;;;;5.45;1.90;;;8.30;99.90;;;;;;5029550;28;20118;-74
2023/05/02 04:03:56;;;;;;;4.03;1.60;;;8.30;99.90;;;;;;5016912;28;20052;-76
2023/05/02 04:06:22;;;;;;;8.80;2.03;;;8.20;99.90;;;;;;5002232;28;20048;-76
2023/05/02 04:08:48;;;;;;;7.85;2.20;;;8.20;99.90;;;;;;5019704;28;20764;-76
2023/05/02 04:11:14;;;;;;;7.50;2.38;;;8.20;99.90;;;;;;5012124;28;20056;-76
2023/05/02 04:13:40;;;;;;;9.68;2.00;;;8.10;99.90;;;;;;5030891;28;20127;-75
2023/05/02 04:16:06;;;;;;;7.63;2.08;;;8.10;99.90;;;;;;5027419;28;20054;-76
2023/05/02 04:18:32;;;;;;;6.60;2.22;;;8.10;99.90;;;;;;5029295;28;20059;-75
2023/05/02 04:20:58;;;;;;;8.70;1.80;;;8.10;99.90;;;;;;5011688;28;20048;-74
2023/05/02 04:23:25;;;;;;;8.75;2.25;;;8.10;99.90;;;;;;5013278;28;20183;-76
2023/05/02 04:25:53;;;;;;;8.10;2.20;;;8.10;99.90;;;;;;5006636;28;20056;-76
2023/05/02 04:28:20;;;;;;;6.80;1.90;;;8.10;99.90;;;;;;5019646;28;20047;-75
2023/05/02 04:30:50;;;;;;;9.73;2.33;;;8.10;99.90;;;;;;5026425;28;20041;-75
2023/05/02 04:33:17;;;;;;;5.85;1.77;;;8.10;99.90;;;;;;5015651;28;20145;-74
2023/05/02 04:35:43;;;;;;;8.05;1.90;;;8.10;99.90;;;;;;4997817;28;20050;-73
2023/05/02 04:38:09;;;;;;;6.90;1.70;;;8.10;99.90;;;;;;5025410;28;20056;-76
2023/05/02 04:40:36;;;;;;;6.78;1.90;;;8.10;99.90;;;;;;5029632;28;20181;-77
2023/05/02 04:43:05;;;;;;;9.07;2.03;;;8.10;99.90;;;;;;5027277;28;20044;-76
2023/05/02 04:45:31;;;;;;;7.97;1.88;;;8.10;99.90;;;;;;4998954;28;20071;-75
2023/05/02 04:47:57;;;;;;;6.05;1.60;;;8.10;99.90;;;;;;5014762;28;20040;-77
2023/05/02 04:50:23;;;;;;;7.35;1.85;;;8.10;99.90;;;;;;5014093;28;20148;-76
2023/05/02 04:52:49;;;;;;;7.80;1.50;;;8.10;99.90;;;;;;5014844;28;20315;-75
2023/05/02 04:55:15;;;;;;;6.20;1.77;;;8.10;99.90;;;;;;5025601;28;20126;-76
2023/05/02 04:57:43;;;;;;;3.10;1.42;;;8.10;99.90;;;;;;5023465;28;20048;-75
2023/05/02 05:00:09;;;;;;;4.68;1.40;;;8.10;99.90;;;;;;5027688;28;20048;-75
2023/05/02 05:02:35;;;;;;;5.95;1.88;;;8.00;99.90;;;;;;5011219;28;20242;-76
2023/05/02 05:05:05;;;;;;;7.32;1.83;;;8.00;99.90;;;;;;5008445;28;22141;-75
2023/05/02 05:07:31;;;;;;;7.97;1.88;;;8.10;99.90;;;;;;5018191;28;20494;-76
2023/05/02 05:09:56;;;;;;;4.88;1.77;;;8.00;99.90;;;;;;5036439;28;20048;-75
2023/05/02 05:12:23;;;;;;;5.88;1.90;;;8.00;99.90;;;;;;5029240;28;20436;-75
2023/05/02 05:14:49;;;;;;;4.07;1.45;;;8.10;99.90;;;;;;5019454;28;20064;-75
2023/05/02 05:17:18;;;;;;;6.70;1.83;;;8.10;99.90;;;;;;5000227;28;20045;-75
2023/05/02 05:19:44;;;;;;;3.60;1.40;;;7.70;99.90;;;;;;5022832;28;20048;-76
2023/05/02 05:22:10;;;;;;;4.18;1.52;;;8.00;99.90;;;;;;4990653;28;20044;-72
2023/05/02 05:24:35;;;;;;;8.07;2.35;;;8.00;99.90;;;;;;5027698;28;21901;-74
2023/05/02 05:27:05;;;;;;;7.32;2.28;;;8.10;99.90;;;;;;5026478;28;20634;-74
2023/05/02 05:29:34;;;;;;;7.85;1.90;;;8.10;99.90;;;;;;5038957;28;20058;-73
2023/05/02 05:32:00;;;;;;;4.63;1.60;;;8.10;99.90;;;;;;5005162;28;20541;-71
2023/05/02 05:34:27;;;;;;;8.25;1.90;;;8.10;99.90;;;;;;5015785;28;20049;-74
2023/05/02 05:36:55;;;;;;;5.63;1.98;;;8.10;99.90;;;;;;5011998;28;20059;-74
2023/05/02 05:39:22;;;;;;;6.65;1.90;;;8.10;99.90;;;;;;5005036;28;20632;-72
2023/05/02 05:41:47;;;;;;;8.80;1.77;;;8.20;99.90;;;;;;5017273;28;20110;-73
2023/05/02 05:44:15;;;;;;;8.25;1.98;;;8.20;99.90;;;;;;5030543;28;20090;-74
2023/05/02 05:46:41;;;;;;;5.28;1.70;;;8.20;99.90;;;;;;5011751;28;20058;-73
2023/05/02 05:49:07;;;;;;;7.25;1.52;;;8.20;99.90;;;;;;5015842;28;20049;-73
2023/05/02 05:51:34;;;;;;;5.75;1.40;;;8.20;99.90;;;;;;5035522;28;20052;-74
2023/05/02 05:54:00;;;;;;;5.07;1.77;;;8.20;99.90;;;;;;5024105;28;20647;-74
2023/05/02 05:56:25;;;;;;;5.72;1.70;;;8.20;99.90;;;;;;5021844;28;20491;-74
2023/05/02 05:58:51;;;;;;;7.35;2.03;;;8.20;99.90;;;;;;5006034;28;20059;-74
2023/05/02 06:01:17;;;;;;;6.38;1.67;;;8.60;99.90;;;;;;5010635;28;20131;-73
2023/05/02 06:03:43;;;;;;;4.00;1.60;;;8.30;99.90;;;;;;5003276;28;20053;-73
2023/05/02 06:06:10;;;;;;;5.72;1.90;;;8.30;99.90;;;;;;5032129;28;20432;-73
2023/05/02 06:08:39;;;;;;;7.68;2.00;;;8.40;99.90;;;;;;5027685;28;20141;-73
2023/05/02 06:11:11;;;;;;;8.60;2.03;;;8.40;99.90;;;;;;5001630;28;20082;-74
2023/05/02 06:13:37;;;;;;;9.98;2.22;;;8.50;99.90;;;;;;5022377;28;20332;-72
2023/05/02 06:16:06;;;;;;;5.70;1.80;;;8.50;99.90;;;;;;5011430;28;20051;-73
2023/05/02 06:18:32;;;;;;;8.57;2.30;;;8.50;99.90;;;;;;4998356;28;20054;-73
2023/05/02 06:21:03;;;;;;;5.65;1.95;;;8.50;99.90;;;;;;4999752;28;20394;-73
2023/05/02 06:23:31;;;;;;;7.57;1.95;;;8.60;99.90;;;;;;5030409;28;20048;-74
2023/05/02 06:26:00;;;;;;;7.75;2.47;;;8.60;99.90;;;;;;5007747;28;20119;-74
2023/05/02 06:28:26;;;;;;;7.70;2.45;;;8.60;99.90;;;;;;5028286;28;20227;-74
2023/05/02 06:31:03;;;;;;;9.23;2.10;;;8.70;99.90;;;;;;5013062;28;20060;-74
2023/05/02 06:33:30;;;;;;;8.20;2.45;;;8.80;99.90;;;;;;5034138;28;20048;-75
2023/05/02 06:35:56;;;;;;;4.97;1.70;;;9.00;99.90;;;;;;5056915;28;20516;-73
2023/05/02 06:38:23;;;;;;;5.00;2.05;;;9.10;99.90;;;;;;5040001;28;20039;-74
2023/05/02 06:40:49;;;;;;;6.05;2.58;;;9.10;99.90;;;;;;5011832;28;20049;-74
2023/05/02 06:43:20;;;;;;;6.25;2.30;;;9.10;99.90;;;;;;5025280;28;20087;-74
2023/05/02 06:45:46;;;;;;;10.98;2.78;;;9.10;99.90;;;;;;5043570;28;20104;-74
2023/05/02 06:48:12;;;;;;;8.07;2.40;;;9.10;99.90;;;;;;5046408;28;20097;-73
2023/05/02 06:50:38;;;;;;;10.52;2.90;;;9.10;99.90;;;;;;5058006;28;20043;-74
2023/05/02 06:53:04;;;;;;;9.95;2.83;;;9.20;99.90;;;;;;5054307;28;20059;-75
2023/05/02 06:55:33;;;;;;;6.03;2.15;;;9.20;99.90;;;;;;5045386;28;20131;-74
2023/05/02 06:57:59;;;;;;;7.22;2.22;;;9.20;99.90;;;;;;5037654;28;20050;-74
2023/05/02 07:00:26;;;;;;;10.23;2.92;;;9.10;99.90;;;;;;5032373;28;20039;-76
2023/05/02 07:02:51;;;;;;;7.32;2.40;;;9.10;99.90;;;;;;5033992;28;20686;-76
2023/05/02 07:05:17;;;;;;;8.00;2.53;;;9.80;99.90;;;;;;5048129;28;20143;-75
2023/05/02 07:07:44;;;;;;;8.57;2.15;;;9.10;99.90;;;;;;5049822;28;20048;-74
2023/05/02 07:10:11;;;;;;;6.32;2.50;;;9.20;99.90;;;;;;5034940;28;20057;-75
2023/05/02 07:12:39;;;;;;;6.38;2.42;;;9.20;99.90;;;;;;5046110;28;20664;-76
2023/05/02 07:15:06;;;;;;;10.68;2.58;;;9.30;99.90;;;;;;5045197;28;20043;-74
2023/05/02 07:17:34;;;;;;;8.90;2.65;;;9.20;99.90;;;;;;5053996;28;20032;-74
2023/05/02 07:20:00;;;;;;;7.32;2.15;;;9.20;99.90;;;;;;5036269;28;20495;-73
2023/05/02 07:22:26;;;;;;;8.38;2.50;;;9.20;99.90;;;;;;5034258;28;20093;-75
2023/05/02 07:25:00;;;;;;;9.68;2.50;;;9.10;99.90;;;;;;5035685;28;20135;-75
2023/05/02 07:27:25;;;;;;;7.72;2.53;;;9.10;99.90;;;;;;5047184;28;20126;-73
2023/05/02 07:29:51;;;;;;;11.45;2.35;;;9.10;99.90;;;;;;5047695;28;20056;-75
2023/05/02 07:32:17;;;;;;;6.18;2.03;;;9.10;99.90;;;;;;5030697;28;20646;-72
2023/05/02 07:34:45;;;;;;;7.07;2.22;;;9.10;99.90;;;;;;5037009;28;20051;-73
2023/05/02 07:37:11;;;;;;;8.50;2.45;;;9.10;99.90;;;;;;5050776;28;20748;-74
2023/05/02 07:39:37;;;;;;;7.88;2.22;;;9.20;99.90;;;;;;5006721;28;20048;-75
2023/05/02 07:42:03;;;;;;;7.88;2.60;;;9.20;99.90;;;;;;5035205;28;20120;-74
2023/05/02 07:44:28;;;;;;;7.07;2.10;;;9.20;99.90;;;;;;5056777;28;20544;-73
2023/05/02 07:46:54;;;;;;;11.80;2.60;;;9.20;99.90;;;;;;5048652;28;20064;-74
2023/05/02 07:49:21;;;;;;;5.85;2.50;;;9.20;99.90;;;;;;5038530;28;20052;-75
2023/05/02 07:51:47;;;;;;;11.10;2.20;;;9.20;99.90;;;;;;5044364;28;20044;-76
2023/05/02 07:54:18;;;;;;;6.00;1.98;;;10.50;99.90;;;;;;5055723;28;20510;-74
2023/05/02 07:56:43;;;;;;;6.80;2.08;;;9.30;99.90;;;;;;5056740;28;20048;-74
2023/05/02 07:59:10;;;;;;;6.45;1.77;;;9.30;99.90;;;;;;5047519;28;20047;-74
2023/05/02 08:01:36;;;;;;;7.88;2.08;;;9.40;99.90;;;;;;5022620;28;20132;-74
2023/05/02 08:04:04;;;;;;;4.65;1.70;;;9.40;99.90;;;;;;5041065;28;20055;-74
2023/05/02 08:06:33;;;;;;;8.57;2.20;;;9.40;99.90;;;;;;5039235;28;20074;-76
2023/05/02 08:08:59;;;;;;;10.70;2.20;;;9.50;99.90;;;;;;5019399;28;20044;-75
2023/05/02 08:11:25;;;;;;;5.05;2.13;;;9.50;99.90;;;;;;5016732;28;20399;-75
2023/05/02 08:13:51;;;;;;;4.20;1.80;;;9.60;99.90;;;;;;5018602;28;20056;-75
2023/05/02 08:16:17;;;;;;;10.65;2.25;;;9.70;99.90;;;;;;5046686;28;20039;-75
2023/05/02 08:18:43;;;;;;;7.43;2.10;;;9.80;99.90;;;;;;5051699;28;20055;-76
2023/05/02 08:21:09;;;;;;;7.63;2.17;;;9.80;99.90;;;;;;5029019;28;20388;-76
2023/05/02 08:23:36;;;;;;;12.70;2.35;;;9.80;99.90;;;;;;5034019;28;20101;-75
2023/05/02 08:26:03;;;;;;;6.10;1.92;;;9.70;99.90;;;;;;5055743;28;20182;-76
2023/05/02 08:28:29;;;;;;;5.70;2.20;;;9.70;99.90;;;;;;5036741;28;20052;-75
2023/05/02 08:30:56;;;;;;;7.40;2.33;;;9.70;99.90;;;;;;5047687;28;20080;-75
2023/05/02 08:33:22;;;;;;;7.95;2.45;;;9.60;99.90;;;;;;5057915;28;20162;-75
2023/05/02 08:35:56;;;;;;;6.93;1.85;;;9.60;99.90;;;;;;5040123;28;20052;-76
2023/05/02 08:38:35;;;;;;;9.27;2.00;;;9.60;99.90;;;;;;5042643;28;20059;-76
2023/05/02 08:41:01;;;;;;;7.80;2.20;;;9.60;99.90;;;;;;5018535;28;20880;-76
2023/05/02 08:43:27;;;;;;;7.30;2.05;;;9.60;99.90;;;;;;5049558;28;20139;-77
2023/05/02 08:45:56;;;;;;;7.50;2.10;;;9.70;99.90;;;;;;5043215;28;20120;-75
2023/05/02 08:48:22;;;;;;;4.90;1.90;;;9.70;99.90;;;;;;5051285;28;20048;-76
2023/05/02 08:50:49;;;;;;;5.55;1.65;;;9.80;99.90;;;;;;5039526;28;20144;-76
2023/05/02 08:53:16;;;;;;;4.75;1.50;;;9.80;99.90;;;;;;5054780;28;20372;-75
2023/05/02 08:55:42;;;;;;;10.63;2.03;;;9.90;99.90;;;;;;5049806;28;20121;-76
2023/05/02 08:58:14;;;;;;;3.83;1.33;;;10.00;99.90;;;;;;5052536;28;20198;-75
2023/05/02 09:00:41;;;;;;;5.25;1.60;;;10.10;99.90;;;;;;5050425;28;20078;-74
2023/05/02 09:03:21;;;;;;;5.40;1.60;;;10.30;99.90;;;;;;5036303;28;20144;-75
2023/05/02 09:05:54;;;;;;;3.78;1.30;;;10.60;99.90;;;;;;5049596;28;20056;-73
2023/05/02 09:08:24;;;;;;;7.43;1.60;;;11.00;99.90;;;;;;5049117;28;20522;-74
2023/05/02 09:10:50;;;;;;;5.75;1.38;;;11.30;99.90;;;;;;5039963;28;20210;-74
2023/05/02 09:13:36;;;;;;;5.25;1.27;;;11.50;99.90;;;;;;5036888;28;20045;-76
2023/05/02 09:16:04;;;;;;;5.67;1.30;;;11.60;99.90;;;;;;5048057;28;20046;-74
2023/05/02 09:18:41;;;;;;;4.88;1.05;;;11.70;99.90;;;;;;5050840;28;20130;-75
2023/05/02 09:21:11;;;;;;;4.20;1.23;;;11.90;99.90;;;;;;5038027;28;20048;-74
2023/05/02 09:23:40;;;;;;;3.45;1.20;;;12.00;99.90;;;;;;5055011;28;20384;-74
2023/05/02 09:26:20;;;;;;;4.70;1.33;;;12.00;99.90;;;;;;5045263;28;20052;-77
2023/05/02 09:28:50;;;;;;;4.18;1.27;;;12.10;99.90;;;;;;5049076;28;20105;-76
2023/05/02 09:31:26;;;;;;;6.13;1.30;;;12.20;99.90;;;;;;5019293;28;20461;-74
2023/05/02 09:33:56;;;;;;;3.13;1.50;;;12.40;99.90;;;;;;5051123;28;20044;-76
2023/05/02 09:36:22;;;;;;;4.50;1.30;;;12.90;99.90;;;;;;5028522;28;20147;-75
2023/05/02 09:38:50;;;;;;;5.25;1.17;;;13.50;99.90;;;;;;5049480;28;20053;-75
2023/05/02 09:41:20;;;;;;;4.53;1.40;;;13.50;99.90;;;;;;5043707;28;20101;-75
2023/05/02 09:43:56;;;;;;;3.80;1.38;;;13.70;99.90;;;;;;5052741;28;20402;-73
2023/05/02 09:46:22;;;;;;;3.58;1.10;;;14.00;99.90;;;;;;5050190;28;20582;-75
2023/05/02 09:48:56;;;;;;;3.92;1.40;;;14.00;99.90;;;;;;5022423;28;20056;-75
2023/05/02 09:51:24;;;;;;;5.18;1.33;;;14.00;99.30;;;;;;5035578;28;20041;-77
2023/05/02 09:53:51;;;;;;;4.88;1.33;;;14.10;99.50;;;;;;5046880;28;20052;-76
2023/05/02 09:56:20;;;;;;;6.88;1.52;;;14.20;99.20;;;;;;5028547;28;20060;-76
2023/05/02 09:58:45;;;;;;;8.40;1.67;;;13.70;98.70;;;;;;5054911;28;20164;-77
2023/05/02 10:01:17;;;;;;;4.93;1.30;;;14.60;98.30;;;;;;5036288;28;20037;-75
2023/05/02 10:03:47;;;;;;;5.18;1.52;;;14.90;97.60;;;;;;5056148;28;20055;-75
2023/05/02 10:06:17;;;;;;;3.97;1.38;;;15.20;97.30;;;;;;5052608;28;20048;-76
2023/05/02 10:08:44;;;;;;;3.88;1.15;;;15.80;97.20;;;;;;5045325;28;20594;-74
2023/05/02 10:11:11;;;;;;;4.68;1.30;;;15.70;96.90;;;;;;5050703;28;20426;-75
2023/05/02 10:13:39;;;;;;;5.38;1.50;;;15.60;95.70;;;;;;5046855;28;20667;-76
2023/05/02 10:16:13;;;;;;;4.47;1.25;;;15.60;95.40;;;;;;5050837;28;20056;-76
2023/05/02 10:19:07;;;;;;;2.30;1.00;;;15.50;95.40;;;;;;5049923;28;20149;-77
2023/05/02 10:21:37;;;;;;;4.20;1.20;;;15.60;95.40;;;;;;5055408;28;20499;-76
2023/05/02 10:24:04;;;;;;;3.70;1.25;;;15.60;95.20;;;;;;5050563;28;20332;-78
2023/05/02 10:26:31;;;;;;;3.72;1.30;;;15.50;95.10;;;;;;5054724;28;20060;-74
2023/05/02 10:28:56;;;;;;;6.72;1.48;;;15.10;95.10;;;;;;5054508;28;20097;-76
2023/05/02 10:31:23;;;;;;;4.13;1.30;;;15.00;94.80;;;;;;5038945;28;20053;-74
2023/05/02 10:33:51;;;;;;;5.05;1.40;;;14.90;95.20;;;;;;5046969;28;20129;-77
2023/05/02 10:36:24;;;;;;;3.42;1.10;;;14.90;95.10;;;;;;5058124;28;20094;-76
2023/05/02 10:38:50;;;;;;;63.17;25.63;;;14.70;95.10;;;;;;5050064;28;20054;-75
2023/05/02 10:41:20;;;;;;;30.33;9.15;;;14.60;94.90;;;;;;5015132;28;20126;-77
2023/05/02 10:43:48;;;;;;;145.63;61.60;;;14.50;94.80;;;;;;5055118;28;20059;-76
2023/05/02 10:46:33;;;;;;;240.43;108.60;;;14.30;95.20;;;;;;5049768;28;20036;-77
2023/05/02 10:49:08;;;;;;;55.17;30.45;;;14.10;94.40;;;;;;5050984;28;20056;-76
2023/05/02 10:51:35;;;;;;;17.75;9.60;;;14.20;95.70;;;;;;5067394;28;20044;-76
2023/05/02 10:54:20;;;;;;;26.73;13.25;;;14.50;95.70;;;;;;5049107;28;20072;-77
2023/05/02 10:57:04;;;;;;;58.33;33.95;;;15.10;93.90;;;;;;5068562;28;20051;-76
2023/05/02 10:59:32;;;;;;;47.28;28.65;;;15.50;93.30;;;;;;5073697;28;20052;-76
2023/05/02 11:01:59;;;;;;;14.30;8.02;;;16.00;94.00;;;;;;5054960;28;20051;-75
2023/05/02 11:04:25;;;;;;;7.18;3.70;;;16.40;93.80;;;;;;5060027;28;20052;-76
2023/05/02 11:06:59;;;;;;;12.85;6.00;;;16.80;93.70;;;;;;5061766;28;21196;-77
2023/05/02 11:09:28;;;;;;;6.40;3.72;;;17.10;92.90;;;;;;5058091;28;20051;-76
2023/05/02 11:11:56;;;;;;;8.70;2.35;;;17.30;93.00;;;;;;5078268;28;20257;-76
2023/05/02 11:14:31;;;;;;;5.93;1.38;;;17.20;93.00;;;;;;5050665;28;20040;-76
2023/05/02 11:17:03;;;;;;;4.13;1.77;;;16.90;92.90;;;;;;5042317;28;21584;-75
2023/05/02 11:19:55;;;;;;;6.57;1.77;;;16.70;92.90;;;;;;5061299;28;20168;-77
2023/05/02 11:22:25;;;;;;;3.15;0.95;;;16.50;92.50;;;;;;5064379;28;21137;-77
2023/05/02 11:24:52;;;;;;;5.60;1.65;;;16.00;93.80;;;;;;5062414;28;20500;-76
2023/05/02 11:27:30;;;;;;;3.65;1.38;;;15.60;94.50;;;;;;5062460;28;20048;-76
2023/05/02 11:30:34;;;;;;;2.47;1.10;;;15.20;94.30;;;;;;5056940;28;20044;-76
2023/05/02 11:33:03;;;;;;;3.15;1.20;;;15.40;94.20;;;;;;5049609;28;20048;-76
2023/05/02 11:35:35;;;;;;;3.92;1.15;;;15.80;94.20;;;;;;5052863;28;20051;-77
2023/05/02 11:38:04;;;;;;;2.95;0.90;;;15.80;94.00;;;;;;5058277;28;20055;-76
2023/05/02 11:40:32;;;;;;;4.72;1.10;;;15.80;93.90;;;;;;5062921;28;20920;-75
2023/05/02 11:42:59;;;;;;;3.50;0.90;;;15.60;93.70;;;;;;5063455;28;20100;-76
2023/05/02 11:45:35;;;;;;;4.88;1.10;;;15.80;93.90;;;;;;5050627;28;20056;-77
2023/05/02 11:48:04;;;;;;;4.55;1.40;;;16.20;93.70;;;;;;5059415;28;20437;-77
2023/05/02 11:50:30;;;;;;;2.88;1.17;;;16.70;93.70;;;;;;5045109;28;20048;-77
2023/05/02 11:52:56;;;;;;;3.38;1.13;;;17.10;93.50;;;;;;5049319;28;21725;-76
2023/05/02 11:55:21;;;;;;;3.40;1.10;;;17.50;93.20;;;;;;5040597;28;20115;-76
2023/05/02 11:57:53;;;;;;;3.97;1.33;;;17.30;92.90;;;;;;5039975;28;20226;-76
2023/05/02 12:00:25;;;;;;;3.80;1.05;;;17.50;93.10;;;;;;5055257;28;20048;-76
2023/05/02 12:02:51;;;;;;;4.38;1.10;;;17.60;92.80;;;;;;5041195;28;20037;-77
2023/05/02 12:05:30;;;;;;;4.70;1.00;;;18.10;92.70;;;;;;5055687;28;20067;-74
2023/05/02 12:07:56;;;;;;;3.85;0.90;;;18.50;91.30;;;;;;5051172;28;20074;-76
2023/05/02 12:10:22;;;;;;;3.63;1.00;;;18.40;91.90;;;;;;5030607;28;20044;-76
2023/05/02 12:12:49;;;;;;;1.58;0.80;;;18.30;91.20;;;;;;5052762;28;20055;-76
2023/05/02 12:15:15;;;;;;;3.20;0.90;;;18.10;90.40;;;;;;5052838;28;20059;-76
2023/05/02 12:17:51;;;;;;;2.15;0.70;;;17.70;90.40;;;;;;5041782;28;20043;-77
2023/05/02 12:20:17;;;;;;;1.42;0.75;;;17.50;90.00;;;;;;5053735;28;20430;-76
2023/05/02 12:22:46;;;;;;;2.50;1.00;;;17.20;90.00;;;;;;5062977;28;20071;-77
2023/05/02 12:25:12;;;;;;;2.35;0.88;;;17.60;89.00;;;;;;5039984;28;20056;-76
2023/05/02 12:27:38;;;;;;;3.75;1.13;;;17.80;87.60;;;;;;5049860;28;20257;-75
2023/05/02 12:30:05;;;;;;;2.25;0.77;;;17.90;87.50;;;;;;5027075;28;20059;-76
2023/05/02 12:32:32;;;;;;;2.92;0.90;;;18.30;87.90;;;;;;5042697;28;20402;-76
2023/05/02 12:35:01;;;;;;;1.17;0.68;;;18.60;86.70;;;;;;5047477;28;20134;-76
2023/05/02 12:37:27;;;;;;;1.05;0.70;;;18.50;85.60;;;;;;5031007;28;20052;-77
2023/05/02 12:39:54;;;;;;;2.97;0.80;;;18.30;85.50;;;;;;5055569;28;20056;-74
2023/05/02 12:42:23;;;;;;;3.33;0.70;;;18.00;85.00;;;;;;5054293;28;20578;-73
2023/05/02 12:44:53;;;;;;;1.77;0.73;;;18.00;84.90;;;;;;5053072;28;22381;-75
2023/05/02 12:47:21;;;;;;;2.67;0.73;;;18.10;85.70;;;;;;5063873;28;20052;-75
2023/05/02 12:49:56;;;;;;;3.00;0.77;;;18.30;84.40;;;;;;5051591;28;20047;-74
2023/05/02 12:53:00;;;;;;;4.13;1.10;;;18.60;83.50;;;;;;5060396;28;20044;-74
2023/05/02 12:55:27;;;;;;;3.08;0.82;;;18.80;81.80;;;;;;5060797;28;20789;-74
2023/05/02 12:58:15;;;;;;;3.53;0.80;;;18.70;83.20;;;;;;5059898;28;20054;-74
2023/05/02 13:00:42;;;;;;;2.38;1.00;;;18.40;81.20;;;;;;5053248;28;20127;-75